sensor_id;sensor_type;location;lat;lon;timestamp;temperature;humidity
3232;DHT22;1628;48.884;9.210;2022-08-25T04:01:17;19.80;99.90
3232;DHT22;1628;48.884;9.210;2022-08-25T04:03:44;19.80;99.90
3232;DHT22;1628;48.884;9.210;2022-08-25T04:06:11;19.90;99.90
3232;DHT22;1628;48.884;9.210;2022-08-25T04:08:39;19.90;99.90
3232;DHT22;1628;48.884;9.210;2022-08-25T04:11:07;19.90;99.90
3232;DHT22;1628;48.884;9.210;2022-08-25T04:13:34;19.80;99.90
3232;DHT22;1628;48.884;9.210;2022-08-25T04:16:02;19.90;99.90
3232;DHT22;1628;48.884;9.210;2022-08-25T04:18:30;19.90;99.90
3232;DHT22;1628;48.884;9.210;2022-08-25T04:21:02;19.90;99.90
3232;DHT22;1628;48.884;9.210;2022-08-25T04:23:29;19.90;99.90
3232;DHT22;1628;48.884;9.210;2022-08-25T04:25:56;20.00;99.90
3232;DHT22;1628;48.884;9.210;2022-08-25T04:28:23;19.90;99.90
3232;DHT22;1628;48.884;9.210;2022-08-25T04:30:49;20.00;99.90
3232;DHT22;1628;48.884;9.210;2022-08-25T04:33:16;19.90;99.90
3232;DHT22;1628;48.884;9.210;2022-08-25T04:35:47;20.00;99.90
3232;DHT22;1628;48.884;9.210;2022-08-25T04:38:14;20.00;99.90
3232;DHT22;1628;48.884;9.210;2022-08-25T04:40:41;20.00;99.90
3232;DHT22;1628;48.884;9.210;2022-08-25T04:43:08;20.00;99.90
3232;DHT22;1628;48.884;9.210;2022-08-25T04:45:36;20.00;99.90
3232;DHT22;1628;48.884;9.210;2022-08-25T04:48:03;20.00;99.90
3232;DHT22;1628;48.884;9.210;2022-08-25T04:50:30;20.10;99.90
3232;DHT22;1628;48.884;9.210;2022-08-25T04:52:58;20.10;99.90
3232;DHT22;1628;48.884;9.210;2022-08-25T04:55:25;20.20;99.90
3232;DHT22;1628;48.884;9.210;2022-08-25T04:57:52;20.20;99.90
3232;DHT22;1628;48.884;9.210;2022-08-25T05:00:19;20.30;99.90
3232;DHT22;1628;48.884;9.210;2022-08-25T05:02:45;20.40;99.90
3232;DHT22;1628;48.884;9.210;2022-08-25T05:05:12;20.50;99.90
3232;DHT22;1628;48.884;9.210;2022-08-25T05:07:39;20.40;99.90
3232;DHT22;1628;48.884;9.210;2022-08-25T05:10:07;20.40;99.90
3232;DHT22;1628;48.884;9.210;2022-08-25T05:12:34;20.60;99.90
3232;DHT22;1628;48.884;9.210;2022-08-25T05:15:01;20.60;99.90
3232;DHT22;1628;48.884;9.210;2022-08-25T05:17:48;20.70;99.90
3232;DHT22;1628;48.884;9.210;2022-08-25T05:20:15;20.80;99.90
3232;DHT22;1628;48.884;9.210;2022-08-25T05:22:43;20.90;99.90
3232;DHT22;1628;48.884;9.210;2022-08-25T05:25:13;21.00;99.90
3232;DHT22;1628;48.884;9.210;2022-08-25T05:27:40;21.10;99.90
3232;DHT22;1628;48.884;9.210;2022-08-25T05:30:08;21.10;99.90
3232;DHT22;1628;48.884;9.210;2022-08-25T05:32:35;21.20;99.90
3232;DHT22;1628;48.884;9.210;2022-08-25T05:35:02;21.20;99.90
3232;DHT22;1628;48.884;9.210;2022-08-25T05:37:30;21.30;99.90
3232;DHT22;1628;48.884;9.210;2022-08-25T05:39:56;21.30;99.90
3232;DHT22;1628;48.884;9.210;2022-08-25T05:42:25;21.40;99.90
3232;DHT22;1628;48.884;9.210;2022-08-25T05:44:52;21.40;99.90
3232;DHT22;1628;48.884;9.210;2022-08-25T05:47:19;21.50;99.90
3232;DHT22;1628;48.884;9.210;2022-08-25T05:49:46;21.60;99.90
3232;DHT22;1628;48.884;9.210;2022-08-25T05:52:13;21.70;99.90
3232;DHT22;1628;48.884;9.210;2022-08-25T05:54:40;21.80;99.90
3232;DHT22;1628;48.884;9.210;2022-08-25T05:57:06;21.90;99.90
3232;DHT22;1628;48.884;9.210;2022-08-25T05:59:34;22.00;99.90
3232;DHT22;1628;48.884;9.210;2022-08-25T06:02:01;22.10;99.90
3232;DHT22;1628;48.884;9.210;2022-08-25T06:04:45;22.20;99.90
3232;DHT22;1628;48.884;9.210;2022-08-25T06:07:12;22.30;99.90
3232;DHT22;1628;48.884;9.210;2022-08-25T06:09:40;22.40;99.90
3232;DHT22;1628;48.884;9.210;2022-08-25T06:12:10;22.40;99.90
3232;DHT22;1628;48.884;9.210;2022-08-25T06:14:39;22.50;99.90
3232;DHT22;1628;48.884;9.210;2022-08-25T06:17:06;22.60;99.90
3232;DHT22;1628;48.884;9.210;2022-08-25T06:19:33;22.60;99.90
3232;DHT22;1628;48.884;9.210;2022-08-25T06:21:59;22.50;99.90
3232;DHT22;1628;48.884;9.210;2022-08-25T06:24:27;22.50;99.90
3232;DHT22;1628;48.884;9.210;2022-08-25T06:26:55;22.60;99.90
3232;DHT22;1628;48.884;9.210;2022-08-25T06:29:22;22.60;99.90
3232;DHT22;1628;48.884;9.210;2022-08-25T06:31:50;22.80;99.90
3232;DHT22;1628;48.884;9.210;2022-08-25T06:34:17;23.00;99.90
3232;DHT22;1628;48.884;9.210;2022-08-25T06:36:44;23.30;99.90
3232;DHT22;1628;48.884;9.210;2022-08-25T06:39:11;23.70;99.90
3232;DHT22;1628;48.884;9.210;2022-08-25T06:41:38;24.20;99.90
3232;DHT22;1628;48.884;9.210;2022-08-25T06:44:05;24.80;99.90
3232;DHT22;1628;48.884;9.210;2022-08-25T06:46:32;25.40;99.90
3232;DHT22;1628;48.884;9.210;2022-08-25T06:49:01;26.10;99.90
3232;DHT22;1628;48.884;9.210;2022-08-25T06:51:27;26.70;99.90
3232;DHT22;1628;48.884;9.210;2022-08-25T06:53:54;27.30;99.90
3232;DHT22;1628;48.884;9.210;2022-08-25T06:56:21;27.70;99.90
3232;DHT22;1628;48.884;9.210;2022-08-25T06:58:48;28.00;99.90
3232;DHT22;1628;48.884;9.210;2022-08-25T07:01:16;28.40;99.90
3232;DHT22;1628;48.884;9.210;2022-08-25T07:03:44;28.90;99.60
3232;DHT22;1628;48.884;9.210;2022-08-25T07:06:12;29.20;97.90
3232;DHT22;1628;48.884;9.210;2022-08-25T07:08:39;29.40;97.90
3232;DHT22;1628;48.884;9.210;2022-08-25T07:11:06;29.90;96.70
3232;DHT22;1628;48.884;9.210;2022-08-25T07:13:33;29.90;95.20
3232;DHT22;1628;48.884;9.210;2022-08-25T07:16:01;30.20;94.70
3232;DHT22;1628;48.884;9.210;2022-08-25T07:18:28;30.70;93.40
3232;DHT22;1628;48.884;9.210;2022-08-25T07:20:55;30.60;92.50
3232;DHT22;1628;48.884;9.210;2022-08-25T07:23:24;31.20;90.80
3232;DHT22;1628;48.884;9.210;2022-08-25T07:25:51;31.80;90.10
3232;DHT22;1628;48.884;9.210;2022-08-25T07:28:19;32.00;89.30
3232;DHT22;1628;48.884;9.210;2022-08-25T07:30:46;32.20;87.10
3232;DHT22;1628;48.884;9.210;2022-08-25T07:33:13;32.60;83.50
3232;DHT22;1628;48.884;9.210;2022-08-25T07:35:40;32.80;81.20
3232;DHT22;1628;48.884;9.210;2022-08-25T07:38:06;32.90;79.80
3232;DHT22;1628;48.884;9.210;2022-08-25T07:40:36;33.30;78.10
3232;DHT22;1628;48.884;9.210;2022-08-25T07:43:06;33.20;77.30
3232;DHT22;1628;48.884;9.210;2022-08-25T07:45:35;33.60;75.90
3232;DHT22;1628;48.884;9.210;2022-08-25T07:48:04;33.80;74.10
3232;DHT22;1628;48.884;9.210;2022-08-25T07:50:32;33.80;73.20
3232;DHT22;1628;48.884;9.210;2022-08-25T07:52:59;34.10;72.40
3232;DHT22;1628;48.884;9.210;2022-08-25T07:55:27;34.00;71.60
3232;DHT22;1628;48.884;9.210;2022-08-25T07:57:56;34.30;70.70
3232;DHT22;1628;48.884;9.210;2022-08-25T08:00:24;34.50;69.30
3232;DHT22;1628;48.884;9.210;2022-08-25T08:02:54;34.80;68.50
3232;DHT22;1628;48.884;9.210;2022-08-25T08:05:22;35.00;67.00
3232;DHT22;1628;48.884;9.210;2022-08-25T08:07:49;35.20;65.80
3232;DHT22;1628;48.884;9.210;2022-08-25T08:10:16;35.10;65.50
3232;DHT22;1628;48.884;9.210;2022-08-25T08:12:43;35.10;66.10
3232;DHT22;1628;48.884;9.210;2022-08-25T08:15:11;35.00;67.50
3232;DHT22;1628;48.884;9.210;2022-08-25T08:17:39;35.30;64.60
3232;DHT22;1628;48.884;9.210;2022-08-25T08:20:08;35.20;64.10
3232;DHT22;1628;48.884;9.210;2022-08-25T08:22:37;35.40;63.80
3232;DHT22;1628;48.884;9.210;2022-08-25T08:25:06;35.80;64.10
3232;DHT22;1628;48.884;9.210;2022-08-25T08:27:33;35.90;62.70
3232;DHT22;1628;48.884;9.210;2022-08-25T08:30:00;36.00;61.60
3232;DHT22;1628;48.884;9.210;2022-08-25T08:32:28;36.10;60.90
3232;DHT22;1628;48.884;9.210;2022-08-25T08:34:55;36.00;60.80
3232;DHT22;1628;48.884;9.210;2022-08-25T08:37:22;36.20;60.00
3232;DHT22;1628;48.884;9.210;2022-08-25T08:39:49;36.30;60.90
3232;DHT22;1628;48.884;9.210;2022-08-25T08:42:26;36.30;60.00
3232;DHT22;1628;48.884;9.210;2022-08-25T08:45:05;36.90;59.10
3232;DHT22;1628;48.884;9.210;2022-08-25T08:47:45;37.10;58.00
3232;DHT22;1628;48.884;9.210;2022-08-25T08:50:23;37.30;57.70
3232;DHT22;1628;48.884;9.210;2022-08-25T08:53:00;37.00;57.50
3232;DHT22;1628;48.884;9.210;2022-08-25T08:55:31;37.00;57.30
3232;DHT22;1628;48.884;9.210;2022-08-25T08:58:00;37.10;56.70
3232;DHT22;1628;48.884;9.210;2022-08-25T09:00:30;37.00;56.80
3232;DHT22;1628;48.884;9.210;2022-08-25T09:03:04;37.30;57.20
3232;DHT22;1628;48.884;9.210;2022-08-25T09:05:36;37.20;56.10
3232;DHT22;1628;48.884;9.210;2022-08-25T09:08:07;37.50;56.30
3232;DHT22;1628;48.884;9.210;2022-08-25T09:10:41;37.90;55.20
3232;DHT22;1628;48.884;9.210;2022-08-25T09:13:15;37.70;54.20
3232;DHT22;1628;48.884;9.210;2022-08-25T09:15:50;38.10;54.00
3232;DHT22;1628;48.884;9.210;2022-08-25T09:18:45;38.00;53.80
3232;DHT22;1628;48.884;9.210;2022-08-25T09:21:21;38.30;54.30
3232;DHT22;1628;48.884;9.210;2022-08-25T09:24:01;38.40;53.20
3232;DHT22;1628;48.884;9.210;2022-08-25T09:26:35;38.70;52.70
3232;DHT22;1628;48.884;9.210;2022-08-25T09:29:07;38.40;52.80
3232;DHT22;1628;48.884;9.210;2022-08-25T09:31:37;38.80;52.50
3232;DHT22;1628;48.884;9.210;2022-08-25T09:34:10;38.50;51.80
3232;DHT22;1628;48.884;9.210;2022-08-25T09:36:37;38.90;51.20
3232;DHT22;1628;48.884;9.210;2022-08-25T09:39:04;39.20;50.60
3232;DHT22;1628;48.884;9.210;2022-08-25T09:41:41;39.30;49.60
3232;DHT22;1628;48.884;9.210;2022-08-25T09:44:17;39.40;49.90
3232;DHT22;1628;48.884;9.210;2022-08-25T09:46:54;39.30;50.00
3232;DHT22;1628;48.884;9.210;2022-08-25T09:49:34;39.40;50.20
3232;DHT22;1628;48.884;9.210;2022-08-25T09:52:24;39.70;49.60
3232;DHT22;1628;48.884;9.210;2022-08-25T09:54:52;39.90;48.40
3232;DHT22;1628;48.884;9.210;2022-08-25T09:57:32;40.20;48.80
3232;DHT22;1628;48.884;9.210;2022-08-25T10:00:14;40.50;48.00
3232;DHT22;1628;48.884;9.210;2022-08-25T10:02:42;40.30;47.70
3232;DHT22;1628;48.884;9.210;2022-08-25T10:05:22;40.30;47.20
3232;DHT22;1628;48.884;9.210;2022-08-25T10:07:54;40.60;48.00
3232;DHT22;1628;48.884;9.210;2022-08-25T10:10:26;40.90;46.00
3232;DHT22;1628;48.884;9.210;2022-08-25T10:12:54;40.80;46.10
3232;DHT22;1628;48.884;9.210;2022-08-25T10:15:27;40.90;46.50
3232;DHT22;1628;48.884;9.210;2022-08-25T10:17:54;40.90;46.50
3232;DHT22;1628;48.884;9.210;2022-08-25T10:20:24;41.20;45.70
3232;DHT22;1628;48.884;9.210;2022-08-25T10:22:51;41.30;44.60
3232;DHT22;1628;48.884;9.210;2022-08-25T10:25:27;41.00;45.30
3232;DHT22;1628;48.884;9.210;2022-08-25T10:28:11;40.70;45.90
3232;DHT22;1628;48.884;9.210;2022-08-25T10:30:50;39.90;46.00
3232;DHT22;1628;48.884;9.210;2022-08-25T10:33:27;39.30;47.50
3232;DHT22;1628;48.884;9.210;2022-08-25T10:36:03;39.00;48.50
3232;DHT22;1628;48.884;9.210;2022-08-25T10:38:37;38.70;48.50
3232;DHT22;1628;48.884;9.210;2022-08-25T10:41:19;38.10;47.90
3232;DHT22;1628;48.884;9.210;2022-08-25T10:43:53;37.50;49.10
3232;DHT22;1628;48.884;9.210;2022-08-25T10:46:29;37.00;49.70
3232;DHT22;1628;48.884;9.210;2022-08-25T10:49:02;36.40;50.90
3232;DHT22;1628;48.884;9.210;2022-08-25T10:51:40;35.60;51.80
3232;DHT22;1628;48.884;9.210;2022-08-25T10:54:19;35.30;52.80
3232;DHT22;1628;48.884;9.210;2022-08-25T10:56:57;35.00;54.30
3232;DHT22;1628;48.884;9.210;2022-08-25T10:59:43;34.90;54.40
3232;DHT22;1628;48.884;9.210;2022-08-25T11:02:43;35.10;53.30
3232;DHT22;1628;48.884;9.210;2022-08-25T11:05:20;34.90;53.60
3232;DHT22;1628;48.884;9.210;2022-08-25T11:07:53;34.60;53.90
3232;DHT22;1628;48.884;9.210;2022-08-25T11:10:26;34.80;54.70
3232;DHT22;1628;48.884;9.210;2022-08-25T11:12:56;35.40;53.70
3232;DHT22;1628;48.884;9.210;2022-08-25T11:15:26;35.80;53.60
3232;DHT22;1628;48.884;9.210;2022-08-25T11:17:55;35.10;52.70
3232;DHT22;1628;48.884;9.210;2022-08-25T11:20:29;35.10;54.10
3232;DHT22;1628;48.884;9.210;2022-08-25T11:23:07;35.20;54.50
3232;DHT22;1628;48.884;9.210;2022-08-25T11:25:37;35.20;54.20
3232;DHT22;1628;48.884;9.210;2022-08-25T11:28:10;34.60;54.30
3232;DHT22;1628;48.884;9.210;2022-08-25T11:30:38;34.30;55.20
3232;DHT22;1628;48.884;9.210;2022-08-25T11:33:05;34.10;55.40
3232;DHT22;1628;48.884;9.210;2022-08-25T11:35:36;34.20;55.90
3232;DHT22;1628;48.884;9.210;2022-08-25T11:38:21;34.10;55.10
3232;DHT22;1628;48.884;9.210;2022-08-25T11:40:58;33.60;56.30
3232;DHT22;1628;48.884;9.210;2022-08-25T11:43:40;33.20;56.80
3232;DHT22;1628;48.884;9.210;2022-08-25T11:46:25;32.90;57.90
3232;DHT22;1628;48.884;9.210;2022-08-25T11:48:59;32.70;57.70
3232;DHT22;1628;48.884;9.210;2022-08-25T11:51:31;32.40;57.60
3232;DHT22;1628;48.884;9.210;2022-08-25T11:54:19;32.10;59.10
3232;DHT22;1628;48.884;9.210;2022-08-25T11:56:56;31.90;60.00
3232;DHT22;1628;48.884;9.210;2022-08-25T11:59:58;32.10;59.70
3232;DHT22;1628;48.884;9.210;2022-08-25T12:02:30;32.40;58.70
3232;DHT22;1628;48.884;9.210;2022-08-25T12:04:58;32.70;58.10
3232;DHT22;1628;48.884;9.210;2022-08-25T12:07:27;33.10;59.60
3232;DHT22;1628;48.884;9.210;2022-08-25T12:10:25;33.40;57.90
3232;DHT22;1628;48.884;9.210;2022-08-25T12:16:35;33.50;56.70
3232;DHT22;1628;48.884;9.210;2022-08-25T12:19:24;33.50;57.10
3232;DHT22;1628;48.884;9.210;2022-08-25T12:21:53;33.80;56.10
3232;DHT22;1628;48.884;9.210;2022-08-25T12:24:21;34.00;56.30
3232;DHT22;1628;48.884;9.210;2022-08-25T12:26:55;34.20;54.70
3232;DHT22;1628;48.884;9.210;2022-08-25T12:29:39;34.40;54.90
3232;DHT22;1628;48.884;9.210;2022-08-25T12:32:23;34.70;54.70
3232;DHT22;1628;48.884;9.210;2022-08-25T12:35:14;34.90;53.90
3232;DHT22;1628;48.884;9.210;2022-08-25T12:37:56;35.20;54.70
3232;DHT22;1628;48.884;9.210;2022-08-25T12:40:27;35.20;52.80
3232;DHT22;1628;48.884;9.210;2022-08-25T12:43:05;35.30;54.00
3232;DHT22;1628;48.884;9.210;2022-08-25T12:45:43;35.10;53.40
3232;DHT22;1628;48.884;9.210;2022-08-25T12:48:39;35.20;54.20
3232;DHT22;1628;48.884;9.210;2022-08-25T12:51:15;35.10;54.30
3232;DHT22;1628;48.884;9.210;2022-08-25T12:53:45;35.00;53.50
3232;DHT22;1628;48.884;9.210;2022-08-25T12:56:20;34.80;54.70
3232;DHT22;1628;48.884;9.210;2022-08-25T12:58:54;35.00;54.60
3232;DHT22;1628;48.884;9.210;2022-08-25T13:01:27;34.90;52.10
3232;DHT22;1628;48.884;9.210;2022-08-25T13:04:35;34.80;51.70
3232;DHT22;1628;48.884;9.210;2022-08-25T13:07:17;34.60;52.40
3232;DHT22;1628;48.884;9.210;2022-08-25T13:10:06;34.50;52.50
3232;DHT22;1628;48.884;9.210;2022-08-25T13:12:42;34.50;53.10
3232;DHT22;1628;48.884;9.210;2022-08-25T13:15:14;34.70;51.90
3232;DHT22;1628;48.884;9.210;2022-08-25T13:17:41;34.80;52.70
3232;DHT22;1628;48.884;9.210;2022-08-25T13:20:13;34.80;53.50
3232;DHT22;1628;48.884;9.210;2022-08-25T13:22:43;35.00;52.90
3232;DHT22;1628;48.884;9.210;2022-08-25T13:25:15;34.90;53.10
3232;DHT22;1628;48.884;9.210;2022-08-25T13:27:47;34.90;53.70
3232;DHT22;1628;48.884;9.210;2022-08-25T13:30:22;34.90;52.70
3232;DHT22;1628;48.884;9.210;2022-08-25T13:32:49;34.90;53.60
3232;DHT22;1628;48.884;9.210;2022-08-25T13:35:19;35.00;51.40
3232;DHT22;1628;48.884;9.210;2022-08-25T13:37:46;34.70;50.20
3232;DHT22;1628;48.884;9.210;2022-08-25T13:40:14;34.60;50.40
3232;DHT22;1628;48.884;9.210;2022-08-25T13:42:43;34.50;50.50
3232;DHT22;1628;48.884;9.210;2022-08-25T13:45:14;34.50;51.40
3232;DHT22;1628;48.884;9.210;2022-08-25T13:47:44;34.50;51.70
3232;DHT22;1628;48.884;9.210;2022-08-25T13:50:16;34.50;50.70
3232;DHT22;1628;48.884;9.210;2022-08-25T13:52:47;34.50;51.00
3232;DHT22;1628;48.884;9.210;2022-08-25T13:55:20;34.50;51.50
3232;DHT22;1628;48.884;9.210;2022-08-25T13:57:48;34.50;51.20
3232;DHT22;1628;48.884;9.210;2022-08-25T14:00:29;34.30;51.40
3232;DHT22;1628;48.884;9.210;2022-08-25T14:02:59;34.20;51.10
3232;DHT22;1628;48.884;9.210;2022-08-25T14:05:35;34.00;51.40
3232;DHT22;1628;48.884;9.210;2022-08-25T14:08:03;34.00;52.60
3232;DHT22;1628;48.884;9.210;2022-08-25T14:10:36;34.00;52.60
3232;DHT22;1628;48.884;9.210;2022-08-25T14:13:12;33.90;52.20
3232;DHT22;1628;48.884;9.210;2022-08-25T14:15:41;33.70;51.90
3232;DHT22;1628;48.884;9.210;2022-08-25T14:18:14;33.80;51.40
3232;DHT22;1628;48.884;9.210;2022-08-25T14:20:46;33.60;51.90
3232;DHT22;1628;48.884;9.210;2022-08-25T14:23:16;33.60;52.60
3232;DHT22;1628;48.884;9.210;2022-08-25T14:25:44;33.60;53.40
3232;DHT22;1628;48.884;9.210;2022-08-25T14:28:13;33.60;52.20
3232;DHT22;1628;48.884;9.210;2022-08-25T14:30:44;33.50;51.90
3232;DHT22;1628;48.884;9.210;2022-08-25T14:33:14;33.20;51.50
3232;DHT22;1628;48.884;9.210;2022-08-25T14:35:42;32.90;51.90
3232;DHT22;1628;48.884;9.210;2022-08-25T14:38:11;32.70;54.00
3232;DHT22;1628;48.884;9.210;2022-08-25T14:40:38;32.70;53.70
3232;DHT22;1628;48.884;9.210;2022-08-25T14:43:05;32.90;53.40
3232;DHT22;1628;48.884;9.210;2022-08-25T14:45:34;33.00;53.40
3232;DHT22;1628;48.884;9.210;2022-08-25T14:48:04;33.10;53.10
3232;DHT22;1628;48.884;9.210;2022-08-25T14:50:34;33.20;53.10
3232;DHT22;1628;48.884;9.210;2022-08-25T14:53:02;33.20;53.30
3232;DHT22;1628;48.884;9.210;2022-08-25T14:55:29;33.20;53.60
3232;DHT22;1628;48.884;9.210;2022-08-25T14:57:55;33.10;52.90
3232;DHT22;1628;48.884;9.210;2022-08-25T15:00:22;32.90;52.80
3232;DHT22;1628;48.884;9.210;2022-08-25T15:02:50;32.80;53.20
3232;DHT22;1628;48.884;9.210;2022-08-25T15:05:20;32.70;53.80
3232;DHT22;1628;48.884;9.210;2022-08-25T15:07:50;32.70;54.10
3232;DHT22;1628;48.884;9.210;2022-08-25T15:10:34;32.70;54.10
3232;DHT22;1628;48.884;9.210;2022-08-25T15:13:01;32.80;54.10
3232;DHT22;1628;48.884;9.210;2022-08-25T15:15:28;32.90;54.10
3232;DHT22;1628;48.884;9.210;2022-08-25T15:17:55;32.80;53.60
3232;DHT22;1628;48.884;9.210;2022-08-25T15:20:21;32.80;53.50
3232;DHT22;1628;48.884;9.210;2022-08-25T15:22:50;32.80;52.70
3232;DHT22;1628;48.884;9.210;2022-08-25T15:25:17;32.80;52.60
3232;DHT22;1628;48.884;9.210;2022-08-25T15:27:44;32.70;52.30
3232;DHT22;1628;48.884;9.210;2022-08-25T15:30:12;32.50;52.70
3232;DHT22;1628;48.884;9.210;2022-08-25T15:32:39;32.40;53.70
3232;DHT22;1628;48.884;9.210;2022-08-25T15:35:07;32.30;53.60
3232;DHT22;1628;48.884;9.210;2022-08-25T15:37:33;32.10;53.40
3232;DHT22;1628;48.884;9.210;2022-08-25T15:40:03;31.90;52.30
3232;DHT22;1628;48.884;9.210;2022-08-25T15:42:30;31.90;53.10
3232;DHT22;1628;48.884;9.210;2022-08-25T15:44:57;32.00;53.50
3232;DHT22;1628;48.884;9.210;2022-08-25T15:47:23;31.90;53.20
3232;DHT22;1628;48.884;9.210;2022-08-25T15:50:01;32.00;54.00
3232;DHT22;1628;48.884;9.210;2022-08-25T15:52:28;32.10;54.20
3232;DHT22;1628;48.884;9.210;2022-08-25T15:54:54;32.00;53.30
3232;DHT22;1628;48.884;9.210;2022-08-25T15:57:22;31.80;53.70
3232;DHT22;1628;48.884;9.210;2022-08-25T15:59:49;31.70;54.00
3232;DHT22;1628;48.884;9.210;2022-08-25T16:02:16;31.40;54.50
3232;DHT22;1628;48.884;9.210;2022-08-25T16:04:43;31.50;54.90
3232;DHT22;1628;48.884;9.210;2022-08-25T16:07:10;31.40;55.20
3232;DHT22;1628;48.884;9.210;2022-08-25T16:09:37;31.40;54.10
3232;DHT22;1628;48.884;9.210;2022-08-25T16:12:04;31.40;54.50
3232;DHT22;1628;48.884;9.210;2022-08-25T16:14:32;31.40;54.90
3232;DHT22;1628;48.884;9.210;2022-08-25T16:16:59;31.30;55.70
3232;DHT22;1628;48.884;9.210;2022-08-25T16:19:26;31.30;55.50
3232;DHT22;1628;48.884;9.210;2022-08-25T16:21:53;31.30;56.00
3232;DHT22;1628;48.884;9.210;2022-08-25T16:24:20;31.30;55.60
3232;DHT22;1628;48.884;9.210;2022-08-25T16:26:47;31.30;56.00
3232;DHT22;1628;48.884;9.210;2022-08-25T16:29:14;31.30;56.50
3232;DHT22;1628;48.884;9.210;2022-08-25T16:31:43;31.30;56.70
3232;DHT22;1628;48.884;9.210;2022-08-25T16:34:10;31.20;56.70
3232;DHT22;1628;48.884;9.210;2022-08-25T16:36:37;31.10;56.80
3232;DHT22;1628;48.884;9.210;2022-08-25T16:39:04;31.10;56.90
3232;DHT22;1628;48.884;9.210;2022-08-25T16:41:31;30.90;56.60
3232;DHT22;1628;48.884;9.210;2022-08-25T16:44:00;30.90;57.20
3232;DHT22;1628;48.884;9.210;2022-08-25T16:46:27;30.90;57.80
3232;DHT22;1628;48.884;9.210;2022-08-25T16:48:58;30.80;57.30
3232;DHT22;1628;48.884;9.210;2022-08-25T16:51:25;30.70;56.90
3232;DHT22;1628;48.884;9.210;2022-08-25T16:53:52;30.70;57.40
3232;DHT22;1628;48.884;9.210;2022-08-25T16:56:37;30.70;57.40
3232;DHT22;1628;48.884;9.210;2022-08-25T16:59:08;30.60;57.40
3232;DHT22;1628;48.884;9.210;2022-08-25T17:01:35;30.60;57.60
3232;DHT22;1628;48.884;9.210;2022-08-25T17:04:04;30.50;58.00
3232;DHT22;1628;48.884;9.210;2022-08-25T17:06:34;30.40;57.90
3232;DHT22;1628;48.884;9.210;2022-08-25T17:09:01;30.40;57.90
3232;DHT22;1628;48.884;9.210;2022-08-25T17:11:30;30.30;58.50
3232;DHT22;1628;48.884;9.210;2022-08-25T17:13:58;30.20;58.60
3232;DHT22;1628;48.884;9.210;2022-08-25T17:16:27;30.20;58.90
3232;DHT22;1628;48.884;9.210;2022-08-25T17:18:55;30.10;58.70
3232;DHT22;1628;48.884;9.210;2022-08-25T17:21:25;30.00;58.80
3232;DHT22;1628;48.884;9.210;2022-08-25T17:23:54;30.00;58.90
3232;DHT22;1628;48.884;9.210;2022-08-25T17:26:23;29.90;59.40
3232;DHT22;1628;48.884;9.210;2022-08-25T17:28:51;29.80;59.10
3232;DHT22;1628;48.884;9.210;2022-08-25T17:31:18;29.80;59.20
3232;DHT22;1628;48.884;9.210;2022-08-25T17:33:45;29.70;59.40
3232;DHT22;1628;48.884;9.210;2022-08-25T17:36:12;29.60;59.50
3232;DHT22;1628;48.884;9.210;2022-08-25T17:38:41;29.60;59.80
3232;DHT22;1628;48.884;9.210;2022-08-25T17:41:08;29.60;59.80
3232;DHT22;1628;48.884;9.210;2022-08-25T17:43:38;29.60;59.90
3232;DHT22;1628;48.884;9.210;2022-08-25T17:46:06;29.50;60.10
3232;DHT22;1628;48.884;9.210;2022-08-25T17:48:35;29.50;60.20
3232;DHT22;1628;48.884;9.210;2022-08-25T17:51:03;29.50;60.40
3232;DHT22;1628;48.884;9.210;2022-08-25T17:53:31;29.40;60.10
3232;DHT22;1628;48.884;9.210;2022-08-25T17:56:02;29.40;60.70
3232;DHT22;1628;48.884;9.210;2022-08-25T17:58:29;29.40;61.00
3232;DHT22;1628;48.884;9.210;2022-08-25T18:00:58;29.30;61.20
3232;DHT22;1628;48.884;9.210;2022-08-25T18:03:25;29.20;61.30
3232;DHT22;1628;48.884;9.210;2022-08-25T18:05:52;29.20;61.50
3232;DHT22;1628;48.884;9.210;2022-08-25T18:08:19;29.20;62.00
3232;DHT22;1628;48.884;9.210;2022-08-25T18:10:47;29.20;63.40
3232;DHT22;1628;48.884;9.210;2022-08-25T18:13:15;29.10;63.60
3232;DHT22;1628;48.884;9.210;2022-08-25T18:15:43;29.10;64.50
3232;DHT22;1628;48.884;9.210;2022-08-25T18:18:10;29.10;63.60
3232;DHT22;1628;48.884;9.210;2022-08-25T18:20:37;29.00;63.80
3232;DHT22;1628;48.884;9.210;2022-08-25T18:23:03;28.90;63.40
3232;DHT22;1628;48.884;9.210;2022-08-25T18:25:30;28.90;63.80
3232;DHT22;1628;48.884;9.210;2022-08-25T18:27:57;28.80;63.80
3232;DHT22;1628;48.884;9.210;2022-08-25T18:30:25;28.80;64.30
3232;DHT22;1628;48.884;9.210;2022-08-25T18:32:52;28.70;63.90
3232;DHT22;1628;48.884;9.210;2022-08-25T18:35:19;28.70;64.10
3232;DHT22;1628;48.884;9.210;2022-08-25T18:37:46;28.60;65.20
3232;DHT22;1628;48.884;9.210;2022-08-25T18:40:31;28.60;65.60
3232;DHT22;1628;48.884;9.210;2022-08-25T18:43:00;28.50;66.70
3232;DHT22;1628;48.884;9.210;2022-08-25T18:45:31;28.40;66.70
3232;DHT22;1628;48.884;9.210;2022-08-25T18:47:59;28.40;68.30
3232;DHT22;1628;48.884;9.210;2022-08-25T18:50:28;28.30;68.00
3232;DHT22;1628;48.884;9.210;2022-08-25T18:52:56;28.30;68.00
3232;DHT22;1628;48.884;9.210;2022-08-25T18:55:24;28.20;69.60
3232;DHT22;1628;48.884;9.210;2022-08-25T18:57:51;28.10;68.00
3232;DHT22;1628;48.884;9.210;2022-08-25T19:00:19;28.10;68.30
3232;DHT22;1628;48.884;9.210;2022-08-25T19:02:50;28.10;68.80
3232;DHT22;1628;48.884;9.210;2022-08-25T19:05:20;28.00;68.50
3232;DHT22;1628;48.884;9.210;2022-08-25T19:07:48;28.00;69.10
3232;DHT22;1628;48.884;9.210;2022-08-25T19:10:16;27.90;70.30
3232;DHT22;1628;48.884;9.210;2022-08-25T19:12:43;27.80;70.10
3232;DHT22;1628;48.884;9.210;2022-08-25T19:15:10;27.80;70.40
3232;DHT22;1628;48.884;9.210;2022-08-25T19:17:37;27.70;70.50
3232;DHT22;1628;48.884;9.210;2022-08-25T19:20:06;27.60;71.10
3232;DHT22;1628;48.884;9.210;2022-08-25T19:22:34;27.60;72.20
3232;DHT22;1628;48.884;9.210;2022-08-25T19:25:01;27.50;70.90
3232;DHT22;1628;48.884;9.210;2022-08-25T19:27:30;27.50;72.10
3232;DHT22;1628;48.884;9.210;2022-08-25T19:29:57;27.50;71.30
3232;DHT22;1628;48.884;9.210;2022-08-25T19:32:25;27.40;71.40
3232;DHT22;1628;48.884;9.210;2022-08-25T19:34:52;27.40;71.00
3232;DHT22;1628;48.884;9.210;2022-08-25T19:37:23;27.30;71.80
3232;DHT22;1628;48.884;9.210;2022-08-25T19:39:50;27.30;72.50
3232;DHT22;1628;48.884;9.210;2022-08-25T19:42:18;27.20;73.00
3232;DHT22;1628;48.884;9.210;2022-08-25T19:44:45;27.10;73.30
3232;DHT22;1628;48.884;9.210;2022-08-25T19:47:13;27.00;73.40
3232;DHT22;1628;48.884;9.210;2022-08-25T19:49:39;26.90;74.00
3232;DHT22;1628;48.884;9.210;2022-08-25T19:52:09;26.90;74.70
3232;DHT22;1628;48.884;9.210;2022-08-25T19:54:39;26.90;75.00
3232;DHT22;1628;48.884;9.210;2022-08-25T19:57:09;26.80;75.50
3232;DHT22;1628;48.884;9.210;2022-08-25T19:59:37;26.70;75.60
3232;DHT22;1628;48.884;9.210;2022-08-25T20:02:05;26.60;75.10
3232;DHT22;1628;48.884;9.210;2022-08-25T20:04:33;26.60;75.30
3232;DHT22;1628;48.884;9.210;2022-08-25T20:07:00;26.60;75.50
3232;DHT22;1628;48.884;9.210;2022-08-25T20:09:27;26.50;75.50
3232;DHT22;1628;48.884;9.210;2022-08-25T20:11:55;26.50;75.20
3232;DHT22;1628;48.884;9.210;2022-08-25T20:14:23;26.50;76.30
3232;DHT22;1628;48.884;9.210;2022-08-25T20:16:50;26.50;76.90
3232;DHT22;1628;48.884;9.210;2022-08-25T20:19:17;26.50;77.50
3232;DHT22;1628;48.884;9.210;2022-08-25T20:21:44;26.40;77.40
3232;DHT22;1628;48.884;9.210;2022-08-25T20:24:11;26.30;78.20
3232;DHT22;1628;48.884;9.210;2022-08-25T20:26:57;26.30;78.90